sensor_id;sensor_type;location;lat;lon;timestamp;P1;durP1;ratioP1;P2;durP2;ratioP2
15833;SDS011;8017;50.812;4.934;2023-05-21T00:02:06;6.07;;;5.43;;
15833;SDS011;8017;50.812;4.934;2023-05-21T00:05:10;7.37;;;6.50;;
15833;SDS011;8017;50.812;4.934;2023-05-21T00:08:14;7.77;;;6.50;;
15833;SDS011;8017;50.812;4.934;2023-05-21T00:11:16;6.43;;;5.80;;
15833;SDS011;8017;50.812;4.934;2023-05-21T00:14:19;7.33;;;5.97;;
15833;SDS011;8017;50.812;4.934;2023-05-21T00:17:21;7.30;;;6.57;;
15833;SDS011;8017;50.812;4.934;2023-05-21T00:20:25;6.70;;;6.00;;
15833;SDS011;8017;50.812;4.934;2023-05-21T00:23:28;6.23;;;5.67;;
15833;SDS011;8017;50.812;4.934;2023-05-21T00:26:31;6.93;;;6.20;;
15833;SDS011;8017;50.812;4.934;2023-05-21T00:29:34;7.97;;;6.50;;
15833;SDS011;8017;50.812;4.934;2023-05-21T00:32:36;6.40;;;5.83;;
15833;SDS011;8017;50.812;4.934;2023-05-21T00:35:38;7.87;;;6.33;;
15833;SDS011;8017;50.812;4.934;2023-05-21T00:38:40;7.97;;;6.37;;
15833;SDS011;8017;50.812;4.934;2023-05-21T00:41:44;6.37;;;5.77;;
15833;SDS011;8017;50.812;4.934;2023-05-21T00:44:49;7.40;;;5.87;;
15833;SDS011;8017;50.812;4.934;2023-05-21T00:47:53;8.20;;;6.07;;
15833;SDS011;8017;50.812;4.934;2023-05-21T00:50:55;6.40;;;5.63;;
15833;SDS011;8017;50.812;4.934;2023-05-21T00:53:57;9.00;;;6.07;;
15833;SDS011;8017;50.812;4.934;2023-05-21T00:57:00;6.63;;;5.80;;
15833;SDS011;8017;50.812;4.934;2023-05-21T01:00:04;6.50;;;5.70;;
15833;SDS011;8017;50.812;4.934;2023-05-21T01:03:07;7.30;;;6.60;;
15833;SDS011;8017;50.812;4.934;2023-05-21T01:06:10;7.83;;;6.23;;
15833;SDS011;8017;50.812;4.934;2023-05-21T01:09:13;7.47;;;6.67;;
15833;SDS011;8017;50.812;4.934;2023-05-21T01:12:15;9.77;;;6.77;;
15833;SDS011;8017;50.812;4.934;2023-05-21T01:15:19;8.60;;;7.53;;
15833;SDS011;8017;50.812;4.934;2023-05-21T01:18:21;9.17;;;7.57;;
15833;SDS011;8017;50.812;4.934;2023-05-21T01:21:24;12.67;;;7.33;;
15833;SDS011;8017;50.812;4.934;2023-05-21T01:24:28;8.93;;;7.07;;
15833;SDS011;8017;50.812;4.934;2023-05-21T01:27:30;10.83;;;8.37;;
15833;SDS011;8017;50.812;4.934;2023-05-21T01:30:32;8.77;;;7.87;;
15833;SDS011;8017;50.812;4.934;2023-05-21T01:33:37;9.20;;;8.37;;
15833;SDS011;8017;50.812;4.934;2023-05-21T01:36:52;8.63;;;7.83;;
15833;SDS011;8017;50.812;4.934;2023-05-21T01:40:04;8.83;;;8.03;;
15833;SDS011;8017;50.812;4.934;2023-05-21T01:43:10;10.30;;;8.50;;
15833;SDS011;8017;50.812;4.934;2023-05-21T01:46:15;9.70;;;8.70;;
15833;SDS011;8017;50.812;4.934;2023-05-21T01:49:19;10.83;;;8.97;;
15833;SDS011;8017;50.812;4.934;2023-05-21T01:52:22;10.03;;;8.90;;
15833;SDS011;8017;50.812;4.934;2023-05-21T01:55:26;9.87;;;8.87;;
15833;SDS011;8017;50.812;4.934;2023-05-21T01:58:30;9.93;;;8.93;;
15833;SDS011;8017;50.812;4.934;2023-05-21T02:01:32;9.43;;;8.43;;
15833;SDS011;8017;50.812;4.934;2023-05-21T02:04:34;10.40;;;7.97;;
15833;SDS011;8017;50.812;4.934;2023-05-21T02:07:36;12.17;;;8.27;;
15833;SDS011;8017;50.812;4.934;2023-05-21T02:10:40;10.70;;;9.60;;
15833;SDS011;8017;50.812;4.934;2023-05-21T02:13:42;12.77;;;9.13;;
15833;SDS011;8017;50.812;4.934;2023-05-21T02:16:45;12.90;;;9.07;;
15833;SDS011;8017;50.812;4.934;2023-05-21T02:19:46;11.23;;;9.40;;
15833;SDS011;8017;50.812;4.934;2023-05-21T02:22:48;9.73;;;8.57;;
15833;SDS011;8017;50.812;4.934;2023-05-21T02:25:52;11.53;;;9.00;;
15833;SDS011;8017;50.812;4.934;2023-05-21T02:28:53;10.20;;;9.20;;
15833;SDS011;8017;50.812;4.934;2023-05-21T02:31:55;11.80;;;9.53;;
15833;SDS011;8017;50.812;4.934;2023-05-21T02:34:57;10.33;;;9.23;;
15833;SDS011;8017;50.812;4.934;2023-05-21T02:38:00;11.10;;;8.60;;
15833;SDS011;8017;50.812;4.934;2023-05-21T02:41:03;10.07;;;8.40;;
15833;SDS011;8017;50.812;4.934;2023-05-21T02:44:05;9.23;;;8.07;;
15833;SDS011;8017;50.812;4.934;2023-05-21T02:47:07;10.10;;;8.73;;
15833;SDS011;8017;50.812;4.934;2023-05-21T02:50:09;10.50;;;8.07;;
15833;SDS011;8017;50.812;4.934;2023-05-21T02:53:11;10.23;;;8.67;;
15833;SDS011;8017;50.812;4.934;2023-05-21T02:56:14;10.60;;;8.50;;
15833;SDS011;8017;50.812;4.934;2023-05-21T02:59:16;10.17;;;8.93;;
15833;SDS011;8017;50.812;4.934;2023-05-21T03:02:18;11.50;;;8.63;;
15833;SDS011;8017;50.812;4.934;2023-05-21T03:05:20;9.63;;;8.00;;
15833;SDS011;8017;50.812;4.934;2023-05-21T03:08:22;9.87;;;8.87;;
15833;SDS011;8017;50.812;4.934;2023-05-21T03:11:25;10.33;;;8.27;;
15833;SDS011;8017;50.812;4.934;2023-05-21T03:14:27;9.80;;;8.80;;
15833;SDS011;8017;50.812;4.934;2023-05-21T03:17:29;9.67;;;7.60;;
15833;SDS011;8017;50.812;4.934;2023-05-21T03:20:31;8.90;;;7.83;;
15833;SDS011;8017;50.812;4.934;2023-05-21T03:23:33;8.67;;;7.77;;
15833;SDS011;8017;50.812;4.934;2023-05-21T03:26:36;10.87;;;8.70;;
15833;SDS011;8017;50.812;4.934;2023-05-21T03:29:38;10.33;;;8.73;;
15833;SDS011;8017;50.812;4.934;2023-05-21T03:32:40;9.60;;;8.20;;
15833;SDS011;8017;50.812;4.934;2023-05-21T03:35:44;9.40;;;7.80;;
15833;SDS011;8017;50.812;4.934;2023-05-21T03:38:45;8.73;;;7.87;;
15833;SDS011;8017;50.812;4.934;2023-05-21T03:41:49;9.30;;;8.30;;
15833;SDS011;8017;50.812;4.934;2023-05-21T03:44:51;9.93;;;8.43;;
15833;SDS011;8017;50.812;4.934;2023-05-21T03:47:53;9.30;;;8.03;;
15833;SDS011;8017;50.812;4.934;2023-05-21T03:50:55;9.93;;;8.73;;
15833;SDS011;8017;50.812;4.934;2023-05-21T03:53:57;11.30;;;8.53;;
15833;SDS011;8017;50.812;4.934;2023-05-21T03:57:00;10.43;;;8.80;;
15833;SDS011;8017;50.812;4.934;2023-05-21T04:00:02;10.90;;;9.07;;
15833;SDS011;8017;50.812;4.934;2023-05-21T04:03:05;10.47;;;9.33;;
15833;SDS011;8017;50.812;4.934;2023-05-21T04:06:08;11.67;;;8.87;;
15833;SDS011;8017;50.812;4.934;2023-05-21T04:09:10;9.03;;;8.13;;
15833;SDS011;8017;50.812;4.934;2023-05-21T04:12:13;9.17;;;8.30;;
15833;SDS011;8017;50.812;4.934;2023-05-21T04:15:17;10.37;;;8.47;;
15833;SDS011;8017;50.812;4.934;2023-05-21T04:18:19;12.17;;;8.90;;
15833;SDS011;8017;50.812;4.934;2023-05-21T04:21:22;9.67;;;8.67;;
15833;SDS011;8017;50.812;4.934;2023-05-21T04:24:24;9.50;;;8.50;;
15833;SDS011;8017;50.812;4.934;2023-05-21T04:27:27;10.80;;;8.80;;
15833;SDS011;8017;50.812;4.934;2023-05-21T04:30:29;9.97;;;8.97;;
15833;SDS011;8017;50.812;4.934;2023-05-21T04:33:34;10.37;;;8.23;;
15833;SDS011;8017;50.812;4.934;2023-05-21T04:36:36;12.13;;;8.93;;
15833;SDS011;8017;50.812;4.934;2023-05-21T04:39:38;10.53;;;8.97;;
15833;SDS011;8017;50.812;4.934;2023-05-21T04:42:42;11.93;;;8.93;;
15833;SDS011;8017;50.812;4.934;2023-05-21T04:45:45;12.57;;;9.77;;
15833;SDS011;8017;50.812;4.934;2023-05-21T04:48:47;10.53;;;9.43;;
15833;SDS011;8017;50.812;4.934;2023-05-21T04:51:51;10.07;;;9.07;;
15833;SDS011;8017;50.812;4.934;2023-05-21T04:54:53;12.27;;;9.47;;
15833;SDS011;8017;50.812;4.934;2023-05-21T04:57:56;9.97;;;8.70;;
15833;SDS011;8017;50.812;4.934;2023-05-21T05:00:58;10.87;;;8.40;;
15833;SDS011;8017;50.812;4.934;2023-05-21T05:04:02;9.63;;;8.63;;
15833;SDS011;8017;50.812;4.934;2023-05-21T05:07:04;9.17;;;8.27;;
15833;SDS011;8017;50.812;4.934;2023-05-21T05:10:06;10.20;;;8.27;;
15833;SDS011;8017;50.812;4.934;2023-05-21T05:13:10;8.90;;;7.73;;
15833;SDS011;8017;50.812;4.934;2023-05-21T05:16:12;8.40;;;7.60;;
15833;SDS011;8017;50.812;4.934;2023-05-21T05:19:16;9.77;;;8.50;;
15833;SDS011;8017;50.812;4.934;2023-05-21T05:22:18;9.03;;;8.13;;
15833;SDS011;8017;50.812;4.934;2023-05-21T05:25:20;9.00;;;8.10;;
15833;SDS011;8017;50.812;4.934;2023-05-21T05:28:24;8.70;;;7.90;;
15833;SDS011;8017;50.812;4.934;2023-05-21T05:31:25;9.33;;;7.73;;
15833;SDS011;8017;50.812;4.934;2023-05-21T05:34:27;9.07;;;8.17;;
15833;SDS011;8017;50.812;4.934;2023-05-21T05:37:29;9.43;;;7.57;;
15833;SDS011;8017;50.812;4.934;2023-05-21T05:40:32;8.97;;;7.70;;
15833;SDS011;8017;50.812;4.934;2023-05-21T05:43:35;8.07;;;7.27;;
15833;SDS011;8017;50.812;4.934;2023-05-21T05:46:37;9.13;;;7.83;;
15833;SDS011;8017;50.812;4.934;2023-05-21T05:49:39;8.23;;;7.43;;
15833;SDS011;8017;50.812;4.934;2023-05-21T05:52:41;8.07;;;7.13;;
15833;SDS011;8017;50.812;4.934;2023-05-21T05:55:43;7.50;;;6.80;;
15833;SDS011;8017;50.812;4.934;2023-05-21T05:58:46;7.87;;;7.17;;
15833;SDS011;8017;50.812;4.934;2023-05-21T06:01:48;9.77;;;7.27;;
15833;SDS011;8017;50.812;4.934;2023-05-21T06:04:50;8.67;;;7.20;;
15833;SDS011;8017;50.812;4.934;2023-05-21T06:07:52;8.10;;;7.33;;
15833;SDS011;8017;50.812;4.934;2023-05-21T06:10:54;7.63;;;6.90;;
15833;SDS011;8017;50.812;4.934;2023-05-21T06:13:57;8.93;;;7.47;;
15833;SDS011;8017;50.812;4.934;2023-05-21T06:17:00;8.13;;;7.27;;
15833;SDS011;8017;50.812;4.934;2023-05-21T06:20:03;9.47;;;7.40;;
15833;SDS011;8017;50.812;4.934;2023-05-21T06:23:06;7.67;;;6.83;;
15833;SDS011;8017;50.812;4.934;2023-05-21T06:26:08;8.70;;;7.50;;
15833;SDS011;8017;50.812;4.934;2023-05-21T06:29:11;9.03;;;7.37;;
15833;SDS011;8017;50.812;4.934;2023-05-21T06:32:13;8.43;;;6.77;;
15833;SDS011;8017;50.812;4.934;2023-05-21T06:35:15;7.73;;;7.03;;
15833;SDS011;8017;50.812;4.934;2023-05-21T06:38:17;9.30;;;7.30;;
15833;SDS011;8017;50.812;4.934;2023-05-21T06:41:19;7.90;;;7.10;;
15833;SDS011;8017;50.812;4.934;2023-05-21T06:44:22;8.70;;;7.90;;
15833;SDS011;8017;50.812;4.934;2023-05-21T06:47:24;11.10;;;7.80;;
15833;SDS011;8017;50.812;4.934;2023-05-21T06:50:26;8.40;;;7.67;;
15833;SDS011;8017;50.812;4.934;2023-05-21T06:53:28;8.60;;;7.63;;
15833;SDS011;8017;50.812;4.934;2023-05-21T06:56:30;9.70;;;7.80;;
15833;SDS011;8017;50.812;4.934;2023-05-21T06:59:33;9.33;;;8.10;;
15833;SDS011;8017;50.812;4.934;2023-05-21T07:02:35;8.47;;;7.63;;
15833;SDS011;8017;50.812;4.934;2023-05-21T07:05:37;10.57;;;8.33;;
15833;SDS011;8017;50.812;4.934;2023-05-21T07:08:39;9.30;;;8.30;;
15833;SDS011;8017;50.812;4.934;2023-05-21T07:11:41;9.37;;;8.53;;
15833;SDS011;8017;50.812;4.934;2023-05-21T07:14:44;9.23;;;8.33;;
15833;SDS011;8017;50.812;4.934;2023-05-21T07:17:46;8.73;;;7.93;;
15833;SDS011;8017;50.812;4.934;2023-05-21T07:20:48;10.10;;;9.00;;
15833;SDS011;8017;50.812;4.934;2023-05-21T07:23:50;9.83;;;8.03;;
15833;SDS011;8017;50.812;4.934;2023-05-21T07:26:52;9.00;;;8.10;;
15833;SDS011;8017;50.812;4.934;2023-05-21T07:29:55;9.33;;;8.37;;
15833;SDS011;8017;50.812;4.934;2023-05-21T07:32:57;9.90;;;8.67;;
15833;SDS011;8017;50.812;4.934;2023-05-21T07:35:59;10.73;;;9.03;;
15833;SDS011;8017;50.812;4.934;2023-05-21T07:39:01;9.50;;;8.50;;
15833;SDS011;8017;50.812;4.934;2023-05-21T07:42:04;9.70;;;8.70;;
15833;SDS011;8017;50.812;4.934;2023-05-21T07:45:08;9.77;;;8.87;;
15833;SDS011;8017;50.812;4.934;2023-05-21T07:48:10;9.53;;;8.63;;
15833;SDS011;8017;50.812;4.934;2023-05-21T07:51:12;10.90;;;8.57;;
15833;SDS011;8017;50.812;4.934;2023-05-21T07:54:14;11.07;;;9.00;;
15833;SDS011;8017;50.812;4.934;2023-05-21T07:57:16;11.00;;;9.13;;
15833;SDS011;8017;50.812;4.934;2023-05-21T08:00:22;10.77;;;9.50;;
15833;SDS011;8017;50.812;4.934;2023-05-21T08:03:25;9.57;;;8.70;;
15833;SDS011;8017;50.812;4.934;2023-05-21T08:06:29;16.10;;;9.90;;
15833;SDS011;8017;50.812;4.934;2023-05-21T08:09:33;10.33;;;9.07;;
15833;SDS011;8017;50.812;4.934;2023-05-21T08:12:34;10.47;;;8.77;;
15833;SDS011;8017;50.812;4.934;2023-05-21T08:15:38;10.50;;;9.43;;
15833;SDS011;8017;50.812;4.934;2023-05-21T08:18:40;11.87;;;9.83;;
15833;SDS011;8017;50.812;4.934;2023-05-21T08:21:42;10.33;;;9.27;;
15833;SDS011;8017;50.812;4.934;2023-05-21T08:24:44;10.47;;;9.47;;
15833;SDS011;8017;50.812;4.934;2023-05-21T08:27:46;10.83;;;9.73;;
15833;SDS011;8017;50.812;4.934;2023-05-21T08:30:49;10.87;;;9.20;;
15833;SDS011;8017;50.812;4.934;2023-05-21T08:33:51;9.80;;;8.90;;
15833;SDS011;8017;50.812;4.934;2023-05-21T08:36:55;11.10;;;9.77;;
15833;SDS011;8017;50.812;4.934;2023-05-21T08:39:57;11.70;;;10.60;;
15833;SDS011;8017;50.812;4.934;2023-05-21T08:42:59;11.10;;;10.00;;
15833;SDS011;8017;50.812;4.934;2023-05-21T08:46:03;10.70;;;9.57;;
15833;SDS011;8017;50.812;4.934;2023-05-21T08:49:07;10.40;;;9.33;;
15833;SDS011;8017;50.812;4.934;2023-05-21T08:52:12;10.93;;;9.80;;
15833;SDS011;8017;50.812;4.934;2023-05-21T08:55:14;10.27;;;9.30;;
15833;SDS011;8017;50.812;4.934;2023-05-21T08:58:16;10.67;;;9.57;;
15833;SDS011;8017;50.812;4.934;2023-05-21T09:01:20;10.47;;;9.47;;
15833;SDS011;8017;50.812;4.934;2023-05-21T09:04:22;11.27;;;9.97;;
15833;SDS011;8017;50.812;4.934;2023-05-21T09:07:25;11.60;;;10.07;;
15833;SDS011;8017;50.812;4.934;2023-05-21T09:10:29;11.50;;;10.30;;
15833;SDS011;8017;50.812;4.934;2023-05-21T09:13:35;11.30;;;10.10;;
15833;SDS011;8017;50.812;4.934;2023-05-21T09:16:39;10.57;;;9.57;;
15833;SDS011;8017;50.812;4.934;2023-05-21T09:23:11;11.53;;;10.33;;
15833;SDS011;8017;50.812;4.934;2023-05-21T09:26:17;12.33;;;11.03;;
15833;SDS011;8017;50.812;4.934;2023-05-21T09:29:21;12.47;;;10.77;;
15833;SDS011;8017;50.812;4.934;2023-05-21T09:32:26;11.73;;;10.53;;
15833;SDS011;8017;50.812;4.934;2023-05-21T09:35:28;12.17;;;10.97;;
15833;SDS011;8017;50.812;4.934;2023-05-21T09:38:32;11.93;;;10.00;;
15833;SDS011;8017;50.812;4.934;2023-05-21T09:41:35;12.87;;;11.20;;
15833;SDS011;8017;50.812;4.934;2023-05-21T09:44:37;11.77;;;10.57;;
15833;SDS011;8017;50.812;4.934;2023-05-21T09:47:42;11.80;;;10.20;;
15833;SDS011;8017;50.812;4.934;2023-05-21T09:50:44;12.27;;;11.07;;
15833;SDS011;8017;50.812;4.934;2023-05-21T09:53:49;15.07;;;11.47;;
15833;SDS011;8017;50.812;4.934;2023-05-21T09:56:53;12.83;;;11.13;;
15833;SDS011;8017;50.812;4.934;2023-05-21T09:59:55;12.90;;;11.47;;
15833;SDS011;8017;50.812;4.934;2023-05-21T10:02:59;12.33;;;11.13;;
15833;SDS011;8017;50.812;4.934;2023-05-21T10:06:02;14.43;;;11.43;;
15833;SDS011;8017;50.812;4.934;2023-05-21T10:09:06;12.03;;;10.83;;
15833;SDS011;8017;50.812;4.934;2023-05-21T10:12:10;12.73;;;11.20;;
15833;SDS011;8017;50.812;4.934;2023-05-21T10:15:18;12.87;;;11.60;;
15833;SDS011;8017;50.812;4.934;2023-05-21T10:18:25;13.37;;;12.07;;
15833;SDS011;8017;50.812;4.934;2023-05-21T10:21:28;13.07;;;11.00;;
15833;SDS011;8017;50.812;4.934;2023-05-21T10:24:32;15.20;;;11.83;;
15833;SDS011;8017;50.812;4.934;2023-05-21T10:27:35;14.60;;;13.07;;
15833;SDS011;8017;50.812;4.934;2023-05-21T10:30:37;13.70;;;12.30;;
15833;SDS011;8017;50.812;4.934;2023-05-21T10:33:41;13.93;;;12.43;;
15833;SDS011;8017;50.812;4.934;2023-05-21T10:36:44;14.47;;;12.73;;
15833;SDS011;8017;50.812;4.934;2023-05-21T10:39:49;13.87;;;12.37;;
15833;SDS011;8017;50.812;4.934;2023-05-21T10:43:07;16.43;;;12.03;;
15833;SDS011;8017;50.812;4.934;2023-05-21T10:49:48;12.03;;;10.83;;
15833;SDS011;8017;50.812;4.934;2023-05-21T10:53:00;14.40;;;11.50;;
15833;SDS011;8017;50.812;4.934;2023-05-21T10:56:13;13.80;;;12.43;;
15833;SDS011;8017;50.812;4.934;2023-05-21T10:59:27;14.60;;;12.43;;
15833;SDS011;8017;50.812;4.934;2023-05-21T11:02:38;15.40;;;11.73;;
15833;SDS011;8017;50.812;4.934;2023-05-21T11:05:49;13.80;;;12.37;;
15833;SDS011;8017;50.812;4.934;2023-05-21T11:08:52;13.93;;;12.57;;
15833;SDS011;8017;50.812;4.934;2023-05-21T11:11:55;14.33;;;12.93;;
15833;SDS011;8017;50.812;4.934;2023-05-21T11:15:05;14.03;;;12.43;;
15833;SDS011;8017;50.812;4.934;2023-05-21T11:18:07;16.87;;;13.50;;
15833;SDS011;8017;50.812;4.934;2023-05-21T11:21:11;13.90;;;12.50;;
15833;SDS011;8017;50.812;4.934;2023-05-21T11:24:17;14.20;;;12.90;;
15833;SDS011;8017;50.812;4.934;2023-05-21T11:27:29;17.60;;;13.27;;
15833;SDS011;8017;50.812;4.934;2023-05-21T11:30:34;16.97;;;13.63;;
15833;SDS011;8017;50.812;4.934;2023-05-21T11:33:36;13.67;;;12.30;;
15833;SDS011;8017;50.812;4.934;2023-05-21T11:36:40;14.83;;;13.30;;
15833;SDS011;8017;50.812;4.934;2023-05-21T11:39:44;15.97;;;12.80;;
15833;SDS011;8017;50.812;4.934;2023-05-21T11:42:48;15.10;;;13.60;;
15833;SDS011;8017;50.812;4.934;2023-05-21T11:45:51;13.90;;;12.50;;
15833;SDS011;8017;50.812;4.934;2023-05-21T11:48:53;14.47;;;13.07;;
15833;SDS011;8017;50.812;4.934;2023-05-21T11:51:58;16.10;;;12.50;;
15833;SDS011;8017;50.812;4.934;2023-05-21T11:55:00;15.20;;;13.70;;
15833;SDS011;8017;50.812;4.934;2023-05-21T11:58:02;14.17;;;12.77;;
15833;SDS011;8017;50.812;4.934;2023-05-21T12:01:07;14.73;;;13.20;;
15833;SDS011;8017;50.812;4.934;2023-05-21T12:04:09;14.90;;;13.43;;
15833;SDS011;8017;50.812;4.934;2023-05-21T12:07:13;14.87;;;12.80;;
15833;SDS011;8017;50.812;4.934;2023-05-21T12:10:19;14.10;;;12.50;;
15833;SDS011;8017;50.812;4.934;2023-05-21T12:13:21;16.33;;;12.57;;
15833;SDS011;8017;50.812;4.934;2023-05-21T12:16:25;14.60;;;13.20;;
15833;SDS011;8017;50.812;4.934;2023-05-21T12:19:27;13.90;;;12.50;;
15833;SDS011;8017;50.812;4.934;2023-05-21T12:22:33;14.93;;;13.17;;
15833;SDS011;8017;50.812;4.934;2023-05-21T12:25:36;14.87;;;12.73;;
15833;SDS011;8017;50.812;4.934;2023-05-21T12:28:38;14.67;;;13.00;;
15833;SDS011;8017;50.812;4.934;2023-05-21T12:31:47;13.87;;;12.57;;
15833;SDS011;8017;50.812;4.934;2023-05-21T12:34:50;14.63;;;13.13;;
15833;SDS011;8017;50.812;4.934;2023-05-21T12:37:55;13.87;;;12.47;;
15833;SDS011;8017;50.812;4.934;2023-05-21T12:41:01;13.40;;;12.10;;
15833;SDS011;8017;50.812;4.934;2023-05-21T12:44:04;13.90;;;12.50;;
15833;SDS011;8017;50.812;4.934;2023-05-21T12:47:08;14.10;;;11.80;;
15833;SDS011;8017;50.812;4.934;2023-05-21T12:50:10;13.73;;;12.30;;
15833;SDS011;8017;50.812;4.934;2023-05-21T12:53:14;13.23;;;11.93;;
15833;SDS011;8017;50.812;4.934;2023-05-21T12:56:16;14.23;;;12.73;;
15833;SDS011;8017;50.812;4.934;2023-05-21T12:59:18;14.83;;;13.33;;
15833;SDS011;8017;50.812;4.934;2023-05-21T13:02:21;13.50;;;11.97;;
15833;SDS011;8017;50.812;4.934;2023-05-21T13:05:23;15.83;;;12.50;;
15833;SDS011;8017;50.812;4.934;2023-05-21T13:08:27;15.57;;;13.00;;
15833;SDS011;8017;50.812;4.934;2023-05-21T13:11:29;15.37;;;13.90;;
15833;SDS011;8017;50.812;4.934;2023-05-21T13:14:31;16.13;;;14.50;;
15833;SDS011;8017;50.812;4.934;2023-05-21T13:17:33;14.47;;;12.97;;
15833;SDS011;8017;50.812;4.934;2023-05-21T13:20:35;13.67;;;12.27;;
15833;SDS011;8017;50.812;4.934;2023-05-21T13:23:38;15.43;;;12.93;;
15833;SDS011;8017;50.812;4.934;2023-05-21T13:26:40;14.40;;;12.90;;
15833;SDS011;8017;50.812;4.934;2023-05-21T13:29:42;13.17;;;11.63;;
15833;SDS011;8017;50.812;4.934;2023-05-21T13:32:45;13.80;;;12.50;;
15833;SDS011;8017;50.812;4.934;2023-05-21T13:35:48;14.00;;;12.13;;
15833;SDS011;8017;50.812;4.934;2023-05-21T13:38:52;14.57;;;12.43;;
15833;SDS011;8017;50.812;4.934;2023-05-21T13:41:55;13.50;;;12.07;;
15833;SDS011;8017;50.812;4.934;2023-05-21T13:44:58;13.47;;;12.20;;
15833;SDS011;8017;50.812;4.934;2023-05-21T13:48:00;13.77;;;12.47;;
15833;SDS011;8017;50.812;4.934;2023-05-21T13:51:02;13.53;;;12.07;;
15833;SDS011;8017;50.812;4.934;2023-05-21T13:54:05;13.63;;;12.23;;
15833;SDS011;8017;50.812;4.934;2023-05-21T13:57:07;13.97;;;12.57;;
15833;SDS011;8017;50.812;4.934;2023-05-21T14:00:09;13.90;;;12.40;;
15833;SDS011;8017;50.812;4.934;2023-05-21T14:03:13;14.17;;;12.73;;
15833;SDS011;8017;50.812;4.934;2023-05-21T14:06:15;13.93;;;12.63;;
15833;SDS011;8017;50.812;4.934;2023-05-21T14:09:19;13.03;;;11.53;;
15833;SDS011;8017;50.812;4.934;2023-05-21T14:12:22;14.10;;;12.57;;
15833;SDS011;8017;50.812;4.934;2023-05-21T14:15:24;13.67;;;12.20;;
15833;SDS011;8017;50.812;4.934;2023-05-21T14:18:26;15.53;;;12.17;;
15833;SDS011;8017;50.812;4.934;2023-05-21T14:21:27;15.17;;;11.00;;
15833;SDS011;8017;50.812;4.934;2023-05-21T14:24:32;12.80;;;11.23;;
15833;SDS011;8017;50.812;4.934;2023-05-21T14:27:33;12.33;;;10.83;;
15833;SDS011;8017;50.812;4.934;2023-05-21T14:30:37;13.73;;;12.50;;
15833;SDS011;8017;50.812;4.934;2023-05-21T14:33:39;12.63;;;11.33;;
15833;SDS011;8017;50.812;4.934;2023-05-21T14:36:41;12.57;;;11.27;;
15833;SDS011;8017;50.812;4.934;2023-05-21T14:39:44;12.07;;;10.83;;
15833;SDS011;8017;50.812;4.934;2023-05-21T14:42:46;13.83;;;11.43;;
15833;SDS011;8017;50.812;4.934;2023-05-21T14:45:48;14.07;;;11.57;;
15833;SDS011;8017;50.812;4.934;2023-05-21T14:48:50;13.77;;;11.40;;
15833;SDS011;8017;50.812;4.934;2023-05-21T14:51:52;12.30;;;11.20;;
15833;SDS011;8017;50.812;4.934;2023-05-21T14:54:55;12.30;;;11.00;;
15833;SDS011;8017;50.812;4.934;2023-05-21T14:57:57;12.07;;;10.83;;
15833;SDS011;8017;50.812;4.934;2023-05-21T15:00:59;13.37;;;11.03;;
15833;SDS011;8017;50.812;4.934;2023-05-21T15:04:01;12.90;;;11.60;;
15833;SDS011;8017;50.812;4.934;2023-05-21T15:07:03;12.83;;;11.60;;
15833;SDS011;8017;50.812;4.934;2023-05-21T15:10:07;14.17;;;12.73;;
15833;SDS011;8017;50.812;4.934;2023-05-21T15:13:09;13.30;;;11.93;;
15833;SDS011;8017;50.812;4.934;2023-05-21T15:16:11;12.67;;;11.37;;
15833;SDS011;8017;50.812;4.934;2023-05-21T15:19:13;12.63;;;11.43;;
15833;SDS011;8017;50.812;4.934;2023-05-21T15:22:15;14.30;;;12.27;;
15833;SDS011;8017;50.812;4.934;2023-05-21T15:25:18;12.93;;;11.60;;
15833;SDS011;8017;50.812;4.934;2023-05-21T15:28:20;13.03;;;11.70;;
15833;SDS011;8017;50.812;4.934;2023-05-21T15:31:22;12.23;;;11.03;;
15833;SDS011;8017;50.812;4.934;2023-05-21T15:34:24;13.67;;;11.20;;
15833;SDS011;8017;50.812;4.934;2023-05-21T15:37:26;14.25;;;11.60;;
15833;SDS011;8017;50.812;4.934;2023-05-21T15:40:32;13.50;;;12.10;;
15833;SDS011;8017;50.812;4.934;2023-05-21T15:43:34;12.70;;;11.43;;
15833;SDS011;8017;50.812;4.934;2023-05-21T15:46:37;13.07;;;11.70;;
15833;SDS011;8017;50.812;4.934;2023-05-21T15:49:39;12.70;;;11.43;;
15833;SDS011;8017;50.812;4.934;2023-05-21T15:52:41;14.53;;;12.27;;
15833;SDS011;8017;50.812;4.934;2023-05-21T15:55:44;13.50;;;12.23;;
15833;SDS011;8017;50.812;4.934;2023-05-21T15:58:46;12.57;;;11.47;;
15833;SDS011;8017;50.812;4.934;2023-05-21T16:01:48;12.80;;;11.53;;
15833;SDS011;8017;50.812;4.934;2023-05-21T16:04:50;13.03;;;10.87;;
15833;SDS011;8017;50.812;4.934;2023-05-21T16:07:52;14.10;;;12.60;;
15833;SDS011;8017;50.812;4.934;2023-05-21T16:10:55;14.30;;;11.80;;
15833;SDS011;8017;50.812;4.934;2023-05-21T16:13:57;12.80;;;11.60;;
15833;SDS011;8017;50.812;4.934;2023-05-21T16:16:59;13.03;;;11.73;;
15833;SDS011;8017;50.812;4.934;2023-05-21T16:20:01;13.17;;;11.97;;
15833;SDS011;8017;50.812;4.934;2023-05-21T16:23:03;12.60;;;10.70;;
15833;SDS011;8017;50.812;4.934;2023-05-21T16:26:07;13.33;;;11.40;;
15833;SDS011;8017;50.812;4.934;2023-05-21T16:29:10;15.27;;;12.27;;
15833;SDS011;8017;50.812;4.934;2023-05-21T16:32:12;13.97;;;12.50;;
15833;SDS011;8017;50.812;4.934;2023-05-21T16:35:14;12.70;;;11.40;;
15833;SDS011;8017;50.812;4.934;2023-05-21T16:38:15;13.07;;;11.77;;
15833;SDS011;8017;50.812;4.934;2023-05-21T16:41:19;13.97;;;11.97;;
15833;SDS011;8017;50.812;4.934;2023-05-21T16:44:21;13.33;;;11.47;;
15833;SDS011;8017;50.812;4.934;2023-05-21T16:47:23;12.43;;;10.93;;
15833;SDS011;8017;50.812;4.934;2023-05-21T16:50:25;14.47;;;12.07;;
15833;SDS011;8017;50.812;4.934;2023-05-21T16:53:27;13.20;;;11.93;;
15833;SDS011;8017;50.812;4.934;2023-05-21T16:56:30;14.33;;;12.73;;
15833;SDS011;8017;50.812;4.934;2023-05-21T16:59:32;14.13;;;12.70;;
15833;SDS011;8017;50.812;4.934;2023-05-21T17:02:34;17.77;;;12.30;;
15833;SDS011;8017;50.812;4.934;2023-05-21T17:05:36;13.43;;;12.10;;
15833;SDS011;8017;50.812;4.934;2023-05-21T17:08:38;13.70;;;12.20;;
15833;SDS011;8017;50.812;4.934;2023-05-21T17:11:42;14.07;;;12.60;;
15833;SDS011;8017;50.812;4.934;2023-05-21T17:14:44;13.67;;;12.27;;
15833;SDS011;8017;50.812;4.934;2023-05-21T17:17:46;15.17;;;12.80;;
15833;SDS011;8017;50.812;4.934;2023-05-21T17:20:48;16.03;;;13.50;;
15833;SDS011;8017;50.812;4.934;2023-05-21T17:23:50;14.73;;;13.33;;
15833;SDS011;8017;50.812;4.934;2023-05-21T17:26:53;15.97;;;13.27;;
15833;SDS011;8017;50.812;4.934;2023-05-21T17:29:55;15.63;;;13.60;;
15833;SDS011;8017;50.812;4.934;2023-05-21T17:32:57;14.13;;;12.70;;
15833;SDS011;8017;50.812;4.934;2023-05-21T17:36:00;14.97;;;13.33;;
15833;SDS011;8017;50.812;4.934;2023-05-21T17:39:02;15.37;;;13.77;;
15833;SDS011;8017;50.812;4.934;2023-05-21T17:42:06;14.87;;;13.47;;
15833;SDS011;8017;50.812;4.934;2023-05-21T17:45:08;14.73;;;13.23;;
15833;SDS011;8017;50.812;4.934;2023-05-21T17:48:10;13.80;;;12.43;;
15833;SDS011;8017;50.812;4.934;2023-05-21T17:51:12;14.60;;;13.10;;
15833;SDS011;8017;50.812;4.934;2023-05-21T17:54:14;14.33;;;12.83;;
15833;SDS011;8017;50.812;4.934;2023-05-21T17:57:18;13.33;;;12.03;;
15833;SDS011;8017;50.812;4.934;2023-05-21T18:00:20;13.80;;;12.40;;
15833;SDS011;8017;50.812;4.934;2023-05-21T18:03:22;15.13;;;12.73;;
15833;SDS011;8017;50.812;4.934;2023-05-21T18:06:24;15.77;;;12.23;;
15833;SDS011;8017;50.812;4.934;2023-05-21T18:09:26;13.73;;;11.83;;
15833;SDS011;8017;50.812;4.934;2023-05-21T18:12:38;13.70;;;12.33;;
15833;SDS011;8017;50.812;4.934;2023-05-21T18:15:41;14.03;;;12.37;;
15833;SDS011;8017;50.812;4.934;2023-05-21T18:18:43;12.77;;;11.43;;
15833;SDS011;8017;50.812;4.934;2023-05-21T18:21:46;10.50;;;9.40;;
15833;SDS011;8017;50.812;4.934;2023-05-21T18:24:48;9.80;;;8.57;;
15833;SDS011;8017;50.812;4.934;2023-05-21T18:27:52;10.60;;;9.20;;